createdAt,value
2019-03-27T00:00:04.537Z,7.50
2019-03-27T00:02:47.553Z,8.60
2019-03-27T00:05:38.429Z,7.73
2019-03-27T00:08:21.911Z,8.23
2019-03-27T00:11:16.029Z,9.87
2019-03-27T00:14:17.320Z,9.00
2019-03-27T00:17:08.167Z,8.70
2019-03-27T00:19:51.954Z,8.50
2019-03-27T00:22:42.827Z,8.30
2019-03-27T00:25:26.441Z,8.73
2019-03-27T00:28:17.346Z,7.70
2019-03-27T00:31:00.631Z,8.77
2019-03-27T00:33:51.511Z,7.67
2019-03-27T00:36:42.392Z,7.63
2019-03-27T00:39:25.211Z,8.30
2019-03-27T00:42:16.150Z,8.20
2019-03-27T00:44:58.928Z,8.53
2019-03-27T00:47:51.895Z,9.37
2019-03-27T00:50:34.862Z,8.10
2019-03-27T00:53:25.801Z,8.00
2019-03-27T00:56:08.721Z,8.13
2019-03-27T00:58:52.305Z,8.27
2019-03-27T01:01:43.237Z,8.50
2019-03-27T01:04:26.806Z,9.37
2019-03-27T01:07:17.717Z,9.07
2019-03-27T01:10:20.790Z,9.40
2019-03-27T01:13:11.697Z,9.20
2019-03-27T01:15:55.295Z,9.20
2019-03-27T01:18:46.186Z,9.37
2019-03-27T01:21:29.504Z,9.13
2019-03-27T01:24:20.400Z,9.20
2019-03-27T01:27:04.214Z,9.60
2019-03-27T01:29:55.131Z,9.03
2019-03-27T01:32:38.016Z,8.90
2019-03-27T01:35:28.898Z,9.90
2019-03-27T01:38:12.434Z,10.40
2019-03-27T01:41:03.335Z,10.20
2019-03-27T01:43:47.031Z,9.10
2019-03-27T01:46:37.942Z,9.93
2019-03-27T01:49:20.956Z,9.50
2019-03-27T01:52:11.836Z,8.77
2019-03-27T01:54:55.488Z,9.17
2019-03-27T01:57:46.422Z,9.23
2019-03-27T02:00:29.335Z,10.40
2019-03-27T02:03:20.225Z,10.27
2019-03-27T02:06:03.537Z,10.03
2019-03-27T02:08:54.474Z,9.17
2019-03-27T02:11:38.160Z,9.80
2019-03-27T02:14:29.056Z,10.20
2019-03-27T02:17:11.961Z,10.47
2019-03-27T02:20:02.862Z,9.67
2019-03-27T02:22:45.717Z,9.67
2019-03-27T02:25:36.638Z,9.47
2019-03-27T02:28:20.184Z,10.00
2019-03-27T02:31:11.105Z,9.67
2019-03-27T02:33:54.840Z,10.30
2019-03-27T02:36:45.820Z,10.00
2019-03-27T02:39:36.713Z,10.03
2019-03-27T02:42:20.389Z,10.57
2019-03-27T02:45:11.303Z,9.80
2019-03-27T02:47:54.653Z,11.23
2019-03-27T02:50:37.465Z,11.37
2019-03-27T02:53:28.381Z,12.43
2019-03-27T02:56:31.426Z,11.50
2019-03-27T02:59:22.344Z,11.80
2019-03-27T03:02:05.609Z,10.63
2019-03-27T03:04:56.535Z,11.00
2019-03-27T03:07:39.934Z,11.17
2019-03-27T03:10:30.864Z,10.43
2019-03-27T03:13:13.793Z,10.37
2019-03-27T03:16:04.677Z,11.33
2019-03-27T03:18:48.058Z,9.93
2019-03-27T03:21:38.929Z,11.80
2019-03-27T03:24:22.444Z,11.07
2019-03-27T03:27:13.334Z,10.90
2019-03-27T03:29:56.223Z,11.73
2019-03-27T03:32:47.161Z,11.57
2019-03-27T03:35:30.928Z,10.73
2019-03-27T03:38:21.853Z,11.37
2019-03-27T03:41:05.029Z,11.60
2019-03-27T03:43:55.896Z,11.57
2019-03-27T03:46:39.117Z,12.23
2019-03-27T03:49:22.813Z,12.60
2019-03-27T03:52:13.810Z,12.97
2019-03-27T03:54:57.505Z,12.47
2019-03-27T03:57:40.937Z,13.90
2019-03-27T04:04:01.273Z,12.23
2019-03-27T04:06:52.238Z,13.43
2019-03-27T04:09:35.725Z,13.20
2019-03-27T04:12:26.641Z,12.53
2019-03-27T04:15:09.637Z,13.00
2019-03-27T04:18:00.498Z,13.00
2019-03-27T04:20:44.262Z,13.13
2019-03-27T04:23:35.168Z,13.80
2019-03-27T04:26:26.056Z,12.50
2019-03-27T04:29:09.148Z,13.23
2019-03-27T04:32:00.065Z,13.27
2019-03-27T04:34:46.936Z,13.87
2019-03-27T04:37:35.897Z,13.17
2019-03-27T04:40:18.985Z,12.77
2019-03-27T04:43:09.918Z,13.30
2019-03-27T04:45:53.072Z,14.43
2019-03-27T04:48:44.002Z,13.17
2019-03-27T04:51:26.979Z,14.20
2019-03-27T04:54:17.905Z,14.03
2019-03-27T04:57:01.193Z,14.70
2019-03-27T04:59:44.730Z,13.90
2019-03-27T05:02:35.620Z,15.43
2019-03-27T05:05:19.000Z,14.33
2019-03-27T05:08:09.905Z,15.10
2019-03-27T05:10:53.564Z,15.47
2019-03-27T05:13:44.420Z,15.47
2019-03-27T05:16:27.903Z,17.13
2019-03-27T05:19:18.843Z,16.23
2019-03-27T05:22:02.461Z,15.80
2019-03-27T05:24:53.338Z,16.07
2019-03-27T05:27:36.635Z,15.80
2019-03-27T05:30:46.320Z,15.50
2019-03-27T05:33:32.526Z,15.80
2019-03-27T05:36:22.277Z,15.63
2019-03-27T05:39:06.184Z,16.40
2019-03-27T05:41:57.067Z,17.07
2019-03-27T05:44:40.853Z,16.90
2019-03-27T05:47:31.706Z,15.87
2019-03-27T05:50:14.955Z,16.27
2019-03-27T05:53:05.829Z,17.27
2019-03-27T05:55:49.024Z,18.77
2019-03-27T05:58:39.928Z,17.33
2019-03-27T06:01:30.882Z,17.00
2019-03-27T06:04:13.874Z,16.17
2019-03-27T06:07:04.734Z,15.73
2019-03-27T06:09:47.947Z,15.97
2019-03-27T06:12:38.878Z,16.93
2019-03-27T06:15:22.551Z,17.40
2019-03-27T06:18:13.695Z,16.10
2019-03-27T06:20:56.548Z,15.63
2019-03-27T06:23:47.453Z,16.03
2019-03-27T06:26:31.031Z,15.43
2019-03-27T06:29:21.933Z,15.77
2019-03-27T06:32:05.460Z,15.80
2019-03-27T06:34:56.370Z,15.00
2019-03-27T06:37:39.233Z,13.53
2019-03-27T06:40:30.156Z,11.40
2019-03-27T06:43:13.344Z,10.60
2019-03-27T06:46:04.226Z,9.60
2019-03-27T06:48:47.207Z,9.83
2019-03-27T06:51:40.384Z,11.30
2019-03-27T06:54:43.047Z,13.60
2019-03-27T06:57:33.967Z,13.30
2019-03-27T07:00:17.559Z,12.37
2019-03-27T07:03:08.705Z,11.40
2019-03-27T07:05:52.425Z,10.77
2019-03-27T07:08:43.312Z,10.43
2019-03-27T07:11:26.254Z,10.67
2019-03-27T07:14:17.175Z,9.30
2019-03-27T07:17:00.586Z,9.33
2019-03-27T07:19:51.494Z,8.60
2019-03-27T07:22:34.936Z,8.97
2019-03-27T07:25:25.856Z,7.27
2019-03-27T07:28:09.449Z,7.47
2019-03-27T07:31:00.373Z,8.30
2019-03-27T07:33:44.046Z,11.33
2019-03-27T07:36:34.948Z,10.10
2019-03-27T07:39:16.844Z,10.93
2019-03-27T07:42:00.167Z,10.77
2019-03-27T07:44:51.112Z,10.53
2019-03-27T07:47:34.356Z,14.70
2019-03-27T07:50:25.261Z,14.03
2019-03-27T07:53:08.180Z,13.97
2019-03-27T07:55:59.078Z,13.33
2019-03-27T07:58:41.933Z,14.23
2019-03-27T08:01:25.748Z,13.33
2019-03-27T08:04:16.723Z,12.20
2019-03-27T08:06:59.753Z,12.60
2019-03-27T08:09:50.676Z,11.97
2019-03-27T08:12:34.179Z,10.80
2019-03-27T08:15:25.151Z,11.63
2019-03-27T08:18:08.514Z,12.07
2019-03-27T08:20:59.674Z,12.00
2019-03-27T08:23:43.339Z,11.87
2019-03-27T08:26:34.234Z,10.87
2019-03-27T08:29:18.040Z,10.73
2019-03-27T08:32:08.980Z,10.23
2019-03-27T08:34:59.919Z,11.90
2019-03-27T08:37:42.853Z,11.13
2019-03-27T08:40:33.793Z,11.97
2019-03-27T08:43:37.071Z,12.50
2019-03-27T08:46:28.027Z,12.50
2019-03-27T08:49:21.129Z,10.33
2019-03-27T08:52:03.543Z,11.10
2019-03-27T08:54:46.664Z,11.23
2019-03-27T08:57:56.319Z,11.13
2019-03-27T09:00:46.711Z,10.43
2019-03-27T09:03:37.620Z,10.63
2019-03-27T09:06:32.971Z,9.97
2019-03-27T09:09:13.556Z,9.03
2019-03-27T09:11:56.921Z,6.83
2019-03-27T09:14:47.935Z,7.27
2019-03-27T09:17:50.790Z,6.30
2019-03-27T09:20:41.695Z,7.00
2019-03-27T09:23:25.170Z,7.00
2019-03-27T09:26:16.123Z,6.93
2019-03-27T09:28:59.059Z,7.43
2019-03-27T09:31:49.976Z,6.90
2019-03-27T09:34:52.762Z,7.03
2019-03-27T09:37:43.656Z,7.80
2019-03-27T09:40:26.968Z,7.63
2019-03-27T09:43:17.870Z,7.40
2019-03-27T09:46:01.314Z,6.67
2019-03-27T09:48:52.203Z,7.53
2019-03-27T09:51:35.785Z,7.57
2019-03-27T09:54:26.669Z,8.13
2019-03-27T09:57:09.957Z,8.00
2019-03-27T10:00:00.865Z,7.57
2019-03-27T10:02:44.592Z,8.33
2019-03-27T10:05:35.513Z,7.17
2019-03-27T10:08:19.216Z,7.43
2019-03-27T10:11:10.152Z,7.90
2019-03-27T10:13:53.418Z,6.90
2019-03-27T10:16:44.361Z,7.03
2019-03-27T10:19:27.333Z,6.63
2019-03-27T10:22:18.254Z,5.30
2019-03-27T10:25:01.496Z,4.73
2019-03-27T10:27:52.414Z,5.20
2019-03-27T10:30:35.977Z,5.60
2019-03-27T10:33:26.900Z,5.63
2019-03-27T10:36:10.559Z,5.40
2019-03-27T10:38:53.674Z,4.60
2019-03-27T10:41:44.576Z,3.30
2019-03-27T10:44:27.437Z,3.00
2019-03-27T10:47:11.042Z,3.63
2019-03-27T10:50:01.946Z,4.00
2019-03-27T10:52:44.790Z,3.40
2019-03-27T10:55:35.681Z,3.17
2019-03-27T10:58:19.072Z,3.60
2019-03-27T11:01:10.047Z,4.00
2019-03-27T11:03:52.896Z,4.50
2019-03-27T11:06:43.791Z,4.47
2019-03-27T11:09:27.372Z,4.77
2019-03-27T11:12:18.343Z,4.03
2019-03-27T11:15:01.308Z,4.20
2019-03-27T11:17:52.238Z,4.60
2019-03-27T11:20:35.162Z,5.20
2019-03-27T11:23:26.160Z,5.00
2019-03-27T11:26:29.233Z,7.27
2019-03-27T11:29:20.214Z,6.90
2019-03-27T11:32:03.879Z,7.63
2019-03-27T11:34:54.818Z,7.43
2019-03-27T11:37:37.868Z,7.47
2019-03-27T11:40:28.808Z,6.53
2019-03-27T11:43:11.694Z,5.23
2019-03-27T11:46:02.637Z,6.33
2019-03-27T11:48:45.943Z,6.27
2019-03-27T11:51:36.894Z,7.23
2019-03-27T11:54:19.974Z,7.63
2019-03-27T11:57:10.909Z,7.60
2019-03-27T11:59:54.507Z,8.23
2019-03-27T12:02:45.433Z,7.60
2019-03-27T12:05:28.384Z,8.00
2019-03-27T12:08:19.281Z,8.40
2019-03-27T12:11:02.926Z,8.10
2019-03-27T12:13:53.821Z,7.33
2019-03-27T12:16:37.654Z,6.90
2019-03-27T12:19:28.614Z,7.60
2019-03-27T12:22:11.779Z,6.60
2019-03-27T12:25:02.705Z,5.50
2019-03-27T12:27:46.359Z,4.90
2019-03-27T12:30:37.283Z,4.80
2019-03-27T12:33:20.332Z,4.17
2019-03-27T12:36:11.249Z,3.97
2019-03-27T12:38:54.143Z,4.40
2019-03-27T12:41:45.114Z,6.10
2019-03-27T12:44:28.595Z,5.77
2019-03-27T12:47:12.396Z,5.53
2019-03-27T12:50:03.321Z,5.33
2019-03-27T12:52:46.212Z,6.13
2019-03-27T12:55:37.126Z,6.83
2019-03-27T12:58:20.342Z,7.03
2019-03-27T13:01:11.347Z,7.47
2019-03-27T13:03:54.208Z,6.87
2019-03-27T13:06:45.162Z,6.97
2019-03-27T13:09:28.772Z,6.90
2019-03-27T13:12:19.690Z,6.40
2019-03-27T13:15:02.846Z,5.83
2019-03-27T13:17:53.761Z,5.87
2019-03-27T13:20:37.164Z,5.23
2019-03-27T13:23:28.088Z,4.97
2019-03-27T13:26:11.736Z,4.60
2019-03-27T13:29:02.665Z,4.53
2019-03-27T13:31:45.507Z,4.50
2019-03-27T13:34:36.441Z,4.37
2019-03-27T13:37:19.997Z,4.40
2019-03-27T13:43:40.541Z,3.77
2019-03-27T13:49:39.671Z,3.57
2019-03-27T13:52:30.612Z,3.30
2019-03-27T13:55:13.580Z,3.30
2019-03-27T13:58:04.508Z,3.90
2019-03-27T14:00:47.869Z,3.23
2019-03-27T14:03:38.770Z,3.50
2019-03-27T14:06:22.430Z,3.20
2019-03-27T14:09:13.402Z,3.33
2019-03-27T14:11:56.928Z,3.57
2019-03-27T14:14:50.488Z,3.33
2019-03-27T14:17:53.219Z,3.03
2019-03-27T14:20:44.086Z,3.67
2019-03-27T14:23:27.528Z,3.80
2019-03-27T14:26:18.416Z,3.63
2019-03-27T14:29:01.284Z,3.57
2019-03-27T14:31:52.208Z,3.43
2019-03-27T14:34:35.054Z,3.63
2019-03-27T14:37:25.939Z,3.60
2019-03-27T14:40:10.745Z,3.07
2019-03-27T14:43:01.691Z,3.10
2019-03-27T14:45:44.961Z,3.00
2019-03-27T14:48:28.656Z,3.23
2019-03-27T14:51:19.569Z,2.90
2019-03-27T14:54:03.096Z,2.87
2019-03-27T14:56:46.606Z,2.80
2019-03-27T14:59:37.514Z,3.63
2019-03-27T15:02:21.152Z,3.17
2019-03-27T15:08:42.339Z,3.47
2019-03-27T15:11:33.251Z,3.30
2019-03-27T15:14:24.162Z,3.00
2019-03-27T15:17:07.771Z,3.27
2019-03-27T15:19:58.759Z,3.07
2019-03-27T15:22:41.657Z,3.07
2019-03-27T15:25:32.566Z,3.03
2019-03-27T15:28:15.827Z,2.80
2019-03-27T15:31:19.750Z,2.50
2019-03-27T15:34:11.883Z,2.80
2019-03-27T15:37:02.782Z,3.00
2019-03-27T15:39:45.767Z,3.00
2019-03-27T15:42:37.401Z,3.20
2019-03-27T15:45:41.788Z,3.33
2019-03-27T15:48:25.162Z,3.17
2019-03-27T15:51:16.063Z,3.40
2019-03-27T15:54:07.094Z,3.70
2019-03-27T15:56:50.476Z,3.23
2019-03-27T15:59:41.385Z,3.93
2019-03-27T16:02:24.427Z,4.63
2019-03-27T16:05:15.333Z,4.10
2019-03-27T16:07:58.860Z,5.00
2019-03-27T16:10:49.734Z,4.70
2019-03-27T16:13:33.331Z,4.37
2019-03-27T16:16:24.279Z,4.47
2019-03-27T16:19:07.258Z,4.63
2019-03-27T16:21:58.200Z,4.80
2019-03-27T16:24:41.276Z,5.67
2019-03-27T16:27:32.278Z,5.43
2019-03-27T16:30:17.135Z,4.93
2019-03-27T16:33:07.843Z,4.97
2019-03-27T16:35:51.660Z,4.63
2019-03-27T16:38:35.165Z,4.80
2019-03-27T16:41:26.140Z,4.43
2019-03-27T16:44:09.885Z,4.63
2019-03-27T16:47:00.822Z,4.53
2019-03-27T16:49:44.357Z,4.30
2019-03-27T16:52:35.268Z,4.43
2019-03-27T16:55:38.150Z,4.80
2019-03-27T16:58:29.078Z,4.50
2019-03-27T17:01:11.959Z,4.60
2019-03-27T17:04:02.842Z,4.37
2019-03-27T17:06:46.575Z,4.60
2019-03-27T17:09:37.458Z,4.40
2019-03-27T17:12:20.524Z,4.20
2019-03-27T17:18:47.520Z,4.13
2019-03-27T17:21:30.400Z,3.87
2019-03-27T17:24:21.328Z,4.00
2019-03-27T17:27:04.427Z,4.43
2019-03-27T17:29:55.356Z,4.53
2019-03-27T17:32:38.822Z,4.13
2019-03-27T17:35:22.252Z,4.13
2019-03-27T17:38:13.156Z,4.60
2019-03-27T17:40:56.604Z,3.97
2019-03-27T17:43:47.540Z,4.00
2019-03-27T17:46:31.034Z,3.73
2019-03-27T17:49:21.981Z,4.00
2019-03-27T17:52:05.116Z,3.97
2019-03-27T17:54:55.989Z,4.13
2019-03-27T17:57:39.525Z,4.50
2019-03-27T18:01:20.960Z,3.77
2019-03-27T18:04:04.390Z,3.63
2019-03-27T18:06:55.259Z,4.13
2019-03-27T18:09:38.234Z,3.63
2019-03-27T18:12:29.156Z,3.73
2019-03-27T18:15:12.789Z,3.60
2019-03-27T18:18:03.691Z,3.87
2019-03-27T18:20:46.839Z,4.03
2019-03-27T18:23:45.760Z,3.80
2019-03-27T18:26:43.000Z,3.93
2019-03-27T18:29:33.914Z,3.43
2019-03-27T18:32:17.064Z,3.83
2019-03-27T18:35:08.196Z,3.70
2019-03-27T18:37:51.655Z,3.97
2019-03-27T18:40:42.554Z,3.80
2019-03-27T18:43:33.483Z,4.13
2019-03-27T18:46:36.558Z,3.70
2019-03-27T18:49:27.438Z,3.80
2019-03-27T18:52:10.779Z,4.63
2019-03-27T18:55:01.733Z,4.20
2019-03-27T18:57:59.024Z,3.90
2019-03-27T19:00:37.612Z,4.30
2019-03-27T19:03:20.889Z,4.23
2019-03-27T19:06:11.772Z,4.77
2019-03-27T19:08:54.954Z,4.43
2019-03-27T19:11:45.842Z,4.33
2019-03-27T19:14:28.694Z,4.70
2019-03-27T19:17:19.638Z,4.40
2019-03-27T19:20:03.418Z,4.53
2019-03-27T19:22:54.350Z,4.13
2019-03-27T19:25:37.575Z,4.53
2019-03-27T19:28:28.473Z,5.33
2019-03-27T19:31:11.516Z,5.10
2019-03-27T19:34:02.465Z,4.57
2019-03-27T19:36:45.711Z,4.80
2019-03-27T19:39:36.625Z,4.27
2019-03-27T19:42:20.332Z,5.00
2019-03-27T19:45:11.427Z,4.93
2019-03-27T19:47:54.455Z,5.30
2019-03-27T19:50:45.328Z,5.43
2019-03-27T19:53:28.493Z,5.50
2019-03-27T19:56:19.411Z,5.80
2019-03-27T19:59:02.725Z,5.40
2019-03-27T20:01:53.650Z,5.30
2019-03-27T20:04:37.339Z,5.40
2019-03-27T20:07:35.960Z,5.63
2019-03-27T20:10:33.158Z,5.73
2019-03-27T20:13:24.056Z,5.87
2019-03-27T20:16:07.585Z,6.33
2019-03-27T20:18:58.523Z,6.63
2019-03-27T20:21:41.419Z,6.60
2019-03-27T20:24:40.901Z,6.83
2019-03-27T20:27:37.581Z,7.40
2019-03-27T20:30:28.638Z,7.03
2019-03-27T20:33:11.596Z,7.30
2019-03-27T20:35:54.416Z,6.70
2019-03-27T20:38:45.625Z,7.17
2019-03-27T20:41:29.403Z,7.50
2019-03-27T20:44:20.352Z,8.10
2019-03-27T20:47:03.645Z,7.83
2019-03-27T20:49:54.550Z,8.00
2019-03-27T20:52:37.641Z,8.40
2019-03-27T20:55:30.623Z,8.60
2019-03-27T20:58:33.757Z,8.00
2019-03-27T21:01:24.670Z,8.57
2019-03-27T21:04:08.467Z,8.10
2019-03-27T21:06:59.360Z,8.50
2019-03-27T21:09:42.801Z,8.47
2019-03-27T21:12:33.732Z,8.90
2019-03-27T21:15:24.686Z,9.10
2019-03-27T21:18:08.293Z,9.10
2019-03-27T21:20:59.255Z,8.77
2019-03-27T21:23:42.723Z,7.97
2019-03-27T21:26:34.535Z,7.87
2019-03-27T21:29:25.512Z,7.97
2019-03-27T21:32:09.096Z,7.53
2019-03-27T21:35:00.072Z,6.90
2019-03-27T21:37:43.038Z,7.13
2019-03-27T21:40:33.996Z,7.03
2019-03-27T21:43:17.706Z,7.27
2019-03-27T21:46:08.629Z,7.20
2019-03-27T21:48:52.136Z,6.90
2019-03-27T21:51:43.068Z,7.30
2019-03-27T21:54:25.974Z,7.30
2019-03-27T21:57:16.914Z,7.23
2019-03-27T22:00:00.870Z,7.47
2019-03-27T22:02:51.845Z,7.80
2019-03-27T22:05:55.020Z,7.50
2019-03-27T22:08:45.961Z,7.27
2019-03-27T22:11:29.601Z,8.37
2019-03-27T22:17:23.245Z,7.73
2019-03-27T22:20:14.170Z,7.90
2019-03-27T22:22:57.835Z,7.20
2019-03-27T22:25:48.890Z,7.50
2019-03-27T22:28:31.916Z,7.90
2019-03-27T22:31:22.888Z,8.40
2019-03-27T22:34:05.734Z,8.63
2019-03-27T22:36:48.592Z,8.60
2019-03-27T22:39:39.554Z,8.47
2019-03-27T22:42:22.532Z,8.90
2019-03-27T22:45:13.589Z,8.63
2019-03-27T22:47:58.016Z,8.27
2019-03-27T22:50:48.983Z,8.90
2019-03-27T22:53:39.917Z,8.73
2019-03-27T22:56:22.834Z,8.13
2019-03-27T22:59:13.791Z,9.60
2019-03-27T23:01:57.268Z,8.67
2019-03-27T23:04:48.184Z,11.40
2019-03-27T23:07:31.882Z,9.30
2019-03-27T23:10:22.861Z,8.60
2019-03-27T23:13:05.938Z,8.33
2019-03-27T23:15:56.870Z,7.43
2019-03-27T23:18:40.708Z,7.73
2019-03-27T23:21:31.702Z,8.47
2019-03-27T23:24:14.795Z,7.60
2019-03-27T23:27:05.750Z,8.10
2019-03-27T23:29:48.659Z,7.80
2019-03-27T23:32:39.613Z,7.87
2019-03-27T23:35:22.531Z,8.63
2019-03-27T23:38:06.329Z,7.90
2019-03-27T23:40:57.258Z,7.77
2019-03-27T23:43:40.699Z,7.93
2019-03-27T23:46:31.637Z,7.93
2019-03-27T23:49:14.724Z,7.60
2019-03-27T23:52:05.638Z,7.80
2019-03-27T23:54:49.253Z,7.10
2019-03-27T23:57:40.172Z,6.67
